Bradley, Maine
Current Conditions -  °F | °C
As of 1:53 PM on Thursday 30 Oct 2014 (Local Time) from KBGR Reporting Station
Broken Clouds Broken Clouds  
Wind Chill: 52°   Ceiling: 10000
Heat Index: 52°   Visibility: 10mi
Dew Point: 41°   Wind: 8mph
Humidity: 66%   Direction: 230°SW
Pressure: 29.85"   Gusts: NA
Location:  44.92°N, 68.63°W
Report Text: KBGR 301753Z 23007KT 10SM FEW035 SCT050 BKN100 11/05 A2985 RMK AO2 SLP109 T01110050 10117 20033 58007
Loading
Personal Weather Stations






























Interactive Weather Map
Tropical Storm Tracking
New forecast layout! Learn more

10-Day Weather Forecast

Advertisements
Track Severe Weather on mobile